Time;durP1;ratioP1;P1;durP2;ratioP2;P2;SDS_P1;SDS_P2;PMS_P1;PMS_P2;Temp;Humidity;BMP_temperature;BMP_pressure;BME280_temperature;BME280_humidity;BME280_pressure;Samples;Min_cycle;Max_cycle;Signal;HPM_P1;HPM_P2
2023/10/10 00:02:20;;;;;;;9.35;3.63;;;14.20;99.90;;;;;;4966285;28;20042;-72
2023/10/10 00:04:50;;;;;;;7.18;2.33;;;14.10;99.90;;;;;;4951519;28;20032;-72
2023/10/10 00:07:17;;;;;;;4.88;2.50;;;14.00;99.90;;;;;;4965030;28;20028;-72
2023/10/10 00:09:44;;;;;;;19.40;3.03;;;14.00;99.90;;;;;;4953965;28;20110;-72
2023/10/10 00:12:25;;;;;;;11.55;3.22;;;13.80;99.90;;;;;;4934523;29;20030;-72
2023/10/10 00:14:51;;;;;;;2.95;1.95;;;13.80;99.90;;;;;;4964664;28;20121;-72
2023/10/10 00:17:20;;;;;;;6.13;1.70;;;13.80;99.90;;;;;;4966391;28;20673;-72
2023/10/10 00:19:54;;;;;;;10.35;3.20;;;13.90;99.90;;;;;;4951197;28;20031;-72
2023/10/10 00:22:30;;;;;;;6.45;2.80;;;13.90;99.90;;;;;;4949009;29;20035;-72
2023/10/10 00:24:55;;;;;;;7.30;2.30;;;13.90;99.90;;;;;;4953485;28;20035;-72
2023/10/10 00:27:23;;;;;;;7.70;2.45;;;13.90;99.90;;;;;;4969613;28;20412;-72
2023/10/10 00:29:49;;;;;;;4.70;2.17;;;13.90;99.90;;;;;;4950790;28;20062;-72
2023/10/10 00:32:22;;;;;;;11.25;2.22;;;13.80;99.90;;;;;;4953415;28;20090;-72
2023/10/10 00:34:49;;;;;;;5.63;2.20;;;13.80;99.90;;;;;;4960067;28;20230;-72
2023/10/10 00:37:20;;;;;;;11.95;2.60;;;13.80;99.90;;;;;;4931214;28;20114;-71
2023/10/10 00:39:52;;;;;;;8.80;2.88;;;13.70;99.90;;;;;;4951790;28;20400;-72
2023/10/10 00:42:40;;;;;;;6.57;2.60;;;13.60;99.90;;;;;;4948161;28;20039;-71
2023/10/10 00:45:14;;;;;;;9.68;2.20;;;13.70;99.90;;;;;;4958724;28;20179;-72
2023/10/10 00:47:43;;;;;;;4.82;1.80;;;13.70;99.90;;;;;;4945902;28;20031;-71
2023/10/10 00:50:17;;;;;;;7.38;2.35;;;13.80;99.90;;;;;;4942549;28;20546;-72
2023/10/10 00:52:46;;;;;;;7.90;3.30;;;13.50;99.90;;;;;;4928190;28;20036;-71
2023/10/10 00:55:12;;;;;;;5.75;2.10;;;13.30;99.90;;;;;;4945108;28;20134;-71
2023/10/10 00:57:39;;;;;;;12.52;2.47;;;13.30;99.90;;;;;;4943578;28;20062;-72
2023/10/10 01:00:10;;;;;;;6.10;2.10;;;13.40;99.90;;;;;;4941125;28;20055;-72
2023/10/10 01:02:39;;;;;;;7.07;2.63;;;13.20;99.90;;;;;;4942479;28;20038;-72
2023/10/10 01:05:12;;;;;;;18.63;2.88;;;13.30;99.90;;;;;;4949317;28;20047;-72
2023/10/10 01:07:39;;;;;;;5.32;2.05;;;13.30;99.90;;;;;;4957265;28;20042;-72
2023/10/10 01:10:16;;;;;;;10.55;2.75;;;13.30;99.90;;;;;;4946510;28;20019;-72
2023/10/10 01:12:46;;;;;;;8.15;2.88;;;13.20;99.90;;;;;;4935793;29;20359;-71
2023/10/10 01:15:33;;;;;;;11.52;3.88;;;13.10;99.90;;;;;;4951836;28;20082;-72
2023/10/10 01:17:59;;;;;;;6.55;2.40;;;13.10;99.90;;;;;;4946995;28;20105;-72
2023/10/10 01:20:45;;;;;;;7.43;2.60;;;13.10;99.90;;;;;;4968724;28;20039;-72
2023/10/10 01:23:14;;;;;;;8.00;2.90;;;13.10;99.90;;;;;;4980987;28;20372;-72
2023/10/10 01:28:22;;;;;;;6.15;2.28;;;12.90;99.90;;;;;;4949201;28;20039;-72
2023/10/10 01:33:41;;;;;;;8.48;2.60;;;12.90;99.90;;;;;;4951577;28;20059;-71
2023/10/10 01:36:19;;;;;;;6.75;2.63;;;12.90;99.90;;;;;;4954906;28;20039;-71
2023/10/10 01:38:59;;;;;;;7.75;2.40;;;13.00;99.90;;;;;;4949144;28;20086;-72
2023/10/10 01:41:41;;;;;;;5.25;2.95;;;13.00;99.90;;;;;;4948875;28;20031;-72
2023/10/10 01:44:13;;;;;;;5.45;2.58;;;13.10;99.90;;;;;;4947878;28;20825;-72
2023/10/10 01:46:42;;;;;;;8.02;3.53;;;13.20;99.90;;;;;;4964737;28;20066;-72
2023/10/10 01:49:43;;;;;;;6.95;2.75;;;13.20;99.90;;;;;;4956124;28;20031;-72
2023/10/10 01:52:01;;;;;;;5.88;2.50;;;13.20;99.90;;;;;;4954466;28;20175;-72
2023/10/10 01:57:23;;;;;;;8.05;1.80;;;13.20;99.90;;;;;;4944481;28;20050;-72
2023/10/10 01:59:51;;;;;;;6.28;2.42;;;13.10;99.90;;;;;;4950223;28;20483;-72
2023/10/10 02:02:23;;;;;;;7.93;3.25;;;13.10;99.90;;;;;;4964112;28;20487;-72
2023/10/10 02:04:51;;;;;;;7.35;2.63;;;13.10;99.90;;;;;;4936591;28;20558;-72
2023/10/10 02:07:23;;;;;;;10.55;2.42;;;13.20;99.90;;;;;;4951566;28;20027;-73
2023/10/10 02:12:38;;;;;;;10.57;2.78;;;12.90;99.90;;;;;;4951148;28;20098;-72
2023/10/10 02:15:12;;;;;;;7.30;2.58;;;13.00;99.90;;;;;;4949376;28;20039;-72
2023/10/10 02:17:51;;;;;;;8.00;2.65;;;13.10;99.90;;;;;;4965186;28;20038;-73
2023/10/10 02:20:19;;;;;;;7.63;2.97;;;13.10;99.90;;;;;;4952294;28;20085;-71
2023/10/10 02:22:51;;;;;;;14.35;2.15;;;13.20;99.90;;;;;;4930838;29;20038;-72
2023/10/10 02:27:56;;;;;;;7.40;3.28;;;13.40;99.90;;;;;;4948937;28;20039;-72
2023/10/10 02:30:37;;;;;;;5.82;2.20;;;13.30;99.90;;;;;;4949881;28;20046;-71
2023/10/10 02:33:13;;;;;;;8.70;3.15;;;13.00;99.90;;;;;;4945790;28;20031;-72
2023/10/10 02:38:33;;;;;;;12.07;3.45;;;12.80;99.90;;;;;;4944524;28;20036;-72
2023/10/10 02:41:24;;;;;;;9.13;2.78;;;13.00;99.90;;;;;;4952536;28;20122;-72
2023/10/10 02:46:35;;;;;;;;;;;13.00;99.90;;;;;;4950599;28;20062;-72
2023/10/10 02:49:22;;;;;;;4.00;1.70;;;12.80;99.90;;;;;;4962248;28;19918;-72
2023/10/10 02:51:49;;;;;;;8.15;2.60;;;12.70;99.90;;;;;;4949547;28;20034;-72
2023/10/10 02:56:48;;;;;;;14.30;3.83;;;12.70;99.90;;;;;;4958267;28;20031;-72
2023/10/10 02:59:22;;;;;;;7.07;2.80;;;12.60;99.90;;;;;;4945063;28;20122;-72
2023/10/10 03:01:57;;;;;;;6.47;2.28;;;12.70;99.90;;;;;;4945481;28;20027;-72
2023/10/10 03:04:52;;;;;;;8.90;3.13;;;12.70;99.90;;;;;;4949135;28;20054;-72
2023/10/10 03:07:09;;;;;;;8.60;2.55;;;12.80;99.90;;;;;;4948269;28;20095;-73
2023/10/10 03:10:06;;;;;;;8.00;2.58;;;12.80;99.90;;;;;;4950041;28;20842;-72
2023/10/10 03:12:29;;;;;;;8.05;3.00;;;12.80;99.90;;;;;;4947860;28;20098;-72
2023/10/10 03:15:04;;;;;;;6.13;2.67;;;12.80;99.90;;;;;;4948702;28;20365;-72
2023/10/10 03:17:42;;;;;;;11.88;2.63;;;12.80;99.90;;;;;;4934207;29;20039;-72
2023/10/10 03:25:46;;;;;;;7.55;3.00;;;13.00;99.90;;;;;;4960369;28;20093;-72
2023/10/10 03:28:29;;;;;;;9.98;2.28;;;12.80;99.90;;;;;;4954137;28;20034;-73
2023/10/10 03:31:09;;;;;;;6.75;2.42;;;12.50;99.90;;;;;;4949802;28;20127;-71
2023/10/10 03:33:37;;;;;;;10.63;2.75;;;12.70;99.90;;;;;;4947984;28;20755;-71
2023/10/10 05:23:30;;;;;;;6.05;2.90;;;12.80;99.90;;;;;;4951041;28;20039;-73
2023/10/10 05:25:24;;;;;;;8.85;3.20;;;12.10;99.90;;;;;;4954357;28;20498;-73
2023/10/10 05:27:58;;;;;;;16.17;3.42;;;12.10;99.90;;;;;;4951827;28;20036;-73
2023/10/10 05:30:25;;;;;;;12.07;3.60;;;12.00;99.90;;;;;;4968085;28;20058;-73
2023/10/10 05:33:02;;;;;;;6.32;2.75;;;11.90;99.90;;;;;;4961578;28;20037;-73
2023/10/10 05:35:51;;;;;;;10.00;3.05;;;11.90;99.90;;;;;;4966158;28;20372;-73
2023/10/10 05:38:19;;;;;;;10.45;3.15;;;12.10;99.90;;;;;;4945250;28;20055;-73
2023/10/10 05:40:47;;;;;;;5.88;2.75;;;12.20;99.90;;;;;;4952844;28;20039;-72
2023/10/10 05:43:16;;;;;;;9.35;2.92;;;12.30;99.90;;;;;;4950647;28;20039;-72
2023/10/10 05:45:45;;;;;;;10.75;3.25;;;12.40;99.90;;;;;;4949947;28;20038;-72
2023/10/10 05:48:12;;;;;;;4.63;2.58;;;12.40;99.90;;;;;;4963378;28;20024;-73
2023/10/10 05:50:40;;;;;;;8.75;3.10;;;12.30;99.90;;;;;;4952478;28;20024;-72
2023/10/10 05:53:07;;;;;;;6.47;3.08;;;12.40;99.90;;;;;;4950118;28;20126;-72
2023/10/10 05:55:34;;;;;;;13.32;4.63;;;12.40;99.90;;;;;;4966553;28;20423;-72
2023/10/10 05:58:02;;;;;;;17.30;4.43;;;12.40;99.90;;;;;;4960409;28;20058;-73
2023/10/10 06:00:36;;;;;;;8.65;2.85;;;12.50;99.90;;;;;;4951035;28;20042;-73
2023/10/10 06:03:05;;;;;;;10.25;3.55;;;12.50;99.90;;;;;;4943186;28;20029;-73
2023/10/10 06:05:33;;;;;;;9.32;3.58;;;12.60;99.90;;;;;;4936478;29;20058;-72
2023/10/10 06:07:59;;;;;;;7.07;2.55;;;12.60;99.90;;;;;;4948598;28;20425;-72
2023/10/10 06:10:31;;;;;;;8.60;3.60;;;12.60;99.90;;;;;;4951087;28;20062;-73
2023/10/10 06:12:58;;;;;;;6.30;2.95;;;12.60;99.90;;;;;;4947269;28;20463;-73
2023/10/10 06:15:24;;;;;;;9.15;3.60;;;12.70;99.90;;;;;;4968355;28;20147;-72
2023/10/10 06:17:57;;;;;;;16.50;3.90;;;12.70;99.90;;;;;;4941401;28;20134;-73
2023/10/10 06:20:26;;;;;;;16.00;3.42;;;12.80;99.90;;;;;;4952036;28;20051;-72
2023/10/10 06:22:55;;;;;;;9.60;3.35;;;12.90;99.90;;;;;;4963159;28;20502;-74
2023/10/10 06:25:23;;;;;;;17.98;2.85;;;12.90;99.90;;;;;;4967974;28;20074;-75
2023/10/10 06:27:56;;;;;;;14.50;4.70;;;13.00;99.90;;;;;;4950603;28;20023;-74
2023/10/10 06:30:24;;;;;;;10.02;3.22;;;13.10;99.90;;;;;;4943774;28;20118;-73
2023/10/10 06:32:51;;;;;;;11.70;2.72;;;13.30;99.90;;;;;;4948616;28;20114;-72
2023/10/10 06:37:51;;;;;;;8.95;3.63;;;13.50;99.90;;;;;;4951307;28;20042;-73
2023/10/10 06:41:11;;;;;;;13.15;4.22;;;13.50;99.90;;;;;;4949662;28;20027;-73
2023/10/10 06:43:07;;;;;;;16.50;4.32;;;13.60;99.90;;;;;;4949663;28;20043;-71
2023/10/10 06:45:37;;;;;;;10.50;3.33;;;13.80;99.90;;;;;;4965204;28;20103;-72
2023/10/10 06:48:03;;;;;;;12.40;4.25;;;13.90;99.90;;;;;;4960483;28;20035;-72
2023/10/10 06:50:32;;;;;;;6.82;2.58;;;14.00;99.90;;;;;;4961018;28;20081;-73
2023/10/10 06:53:00;;;;;;;9.38;2.85;;;13.90;99.90;;;;;;4951222;28;20031;-71
2023/10/10 06:55:36;;;;;;;11.18;3.90;;;13.90;99.90;;;;;;4966608;28;20146;-71
2023/10/10 06:58:05;;;;;;;28.65;4.65;;;14.00;99.90;;;;;;4950507;28;20047;-72
2023/10/10 07:00:45;;;;;;;17.52;4.18;;;14.10;99.90;;;;;;4968325;28;20031;-70
2023/10/10 07:03:30;;;;;;;14.25;4.82;;;14.10;99.90;;;;;;4974007;28;20065;-71
2023/10/10 07:05:56;;;;;;;10.10;3.35;;;14.20;99.90;;;;;;4964872;28;20086;-70
2023/10/10 07:08:25;;;;;;;6.97;3.75;;;14.30;99.90;;;;;;4964375;28;20036;-70
2023/10/10 07:10:55;;;;;;;12.60;3.50;;;14.30;99.90;;;;;;4968524;28;20039;-71
2023/10/10 07:13:29;;;;;;;11.25;4.15;;;14.20;99.90;;;;;;4950379;28;20121;-69
2023/10/10 07:15:58;;;;;;;13.38;4.95;;;14.30;99.90;;;;;;4952360;28;20035;-70
2023/10/10 07:18:25;;;;;;;17.67;3.75;;;14.40;99.90;;;;;;4949409;28;20043;-69
2023/10/10 07:23:37;;;;;;;13.25;3.85;;;14.40;99.90;;;;;;4950299;28;20051;-70
2023/10/10 07:26:21;;;;;;;15.85;3.60;;;14.40;99.90;;;;;;4953628;28;20043;-68
2023/10/10 07:28:53;;;;;;;12.30;4.15;;;14.40;99.90;;;;;;4945955;28;20360;-71
2023/10/10 07:31:22;;;;;;;14.35;3.10;;;14.30;99.90;;;;;;4965206;28;20035;-70
2023/10/10 07:33:57;;;;;;;17.88;3.60;;;14.30;99.90;;;;;;4949219;28;20087;-71
2023/10/10 07:36:27;;;;;;;9.65;3.28;;;14.50;99.90;;;;;;4947223;28;20043;-71
2023/10/10 07:38:54;;;;;;;8.27;3.20;;;14.50;99.90;;;;;;4948215;28;20243;-71
2023/10/10 07:41:28;;;;;;;10.65;4.25;;;14.60;99.90;;;;;;4967645;28;20122;-71
2023/10/10 07:43:59;;;;;;;14.05;2.70;;;14.80;99.90;;;;;;4945809;28;20062;-71
2023/10/10 07:46:27;;;;;;;12.57;3.30;;;14.80;99.90;;;;;;4952495;28;20031;-71
2023/10/10 07:48:54;;;;;;;10.93;3.65;;;15.00;99.90;;;;;;4945760;28;20031;-71
2023/10/10 07:51:29;;;;;;;13.65;3.13;;;15.20;99.90;;;;;;4971170;28;20031;-71
2023/10/10 07:54:12;;;;;;;11.50;3.30;;;15.30;99.90;;;;;;4950200;28;20507;-71
2023/10/10 07:56:45;;;;;;;8.15;2.90;;;15.30;99.90;;;;;;4955364;28;20058;-71
2023/10/10 07:59:17;;;;;;;8.20;2.65;;;15.30;99.90;;;;;;4957771;28;20055;-71
2023/10/10 08:01:44;;;;;;;10.07;3.88;;;15.40;99.90;;;;;;4954815;28;20035;-72
2023/10/10 08:04:16;;;;;;;11.75;2.83;;;15.30;99.90;;;;;;4950985;28;20035;-70
2023/10/10 08:06:45;;;;;;;8.98;3.55;;;15.50;99.90;;;;;;4954432;28;20480;-71
2023/10/10 08:11:46;;;;;;;16.17;3.13;;;15.60;99.90;;;;;;4968864;28;20031;-71
2023/10/10 08:14:12;;;;;;;8.45;2.45;;;15.70;99.90;;;;;;4958112;28;20039;-71
2023/10/10 08:16:41;;;;;;;15.23;2.75;;;15.70;99.90;;;;;;4953948;28;20043;-71
2023/10/10 08:19:08;;;;;;;7.55;2.65;;;15.90;99.90;;;;;;4948920;28;20110;-71
2023/10/10 08:21:39;;;;;;;7.85;3.60;;;15.80;99.90;;;;;;4950164;28;20047;-71
2023/10/10 08:24:08;;;;;;;12.10;3.35;;;16.00;99.90;;;;;;4953310;28;20035;-71
2023/10/10 08:26:41;;;;;;;9.13;3.08;;;16.20;99.90;;;;;;4953196;28;20122;-70
2023/10/10 08:29:12;;;;;;;5.07;2.38;;;16.30;99.90;;;;;;4948264;28;20034;-71
2023/10/10 08:31:42;;;;;;;16.60;2.75;;;16.40;99.90;;;;;;4985724;28;20399;-71
2023/10/10 08:34:09;;;;;;;7.72;2.53;;;16.60;99.90;;;;;;4953814;28;20058;-71
2023/10/10 08:36:37;;;;;;;7.50;2.58;;;16.70;99.90;;;;;;4955260;28;20031;-71
2023/10/10 08:41:42;;;;;;;10.80;3.03;;;16.60;99.90;;;;;;4954239;28;20043;-70
2023/10/10 08:44:14;;;;;;;9.25;3.08;;;16.60;99.90;;;;;;4964838;28;20027;-71
2023/10/10 08:46:48;;;;;;;15.85;3.60;;;16.80;99.90;;;;;;4968556;28;20027;-70
2023/10/10 08:49:15;;;;;;;9.25;2.97;;;17.00;99.90;;;;;;4956819;28;20030;-71
2023/10/10 08:51:43;;;;;;;13.32;3.13;;;17.00;99.90;;;;;;4952167;28;20376;-71
2023/10/10 08:54:12;;;;;;;15.38;3.25;;;17.00;99.90;;;;;;4952660;28;20558;-71
2023/10/10 08:57:10;;;;;;;7.10;2.30;;;16.90;99.90;;;;;;4969547;28;20042;-71
2023/10/10 08:59:42;;;;;;;5.35;2.38;;;17.10;99.90;;;;;;4950191;28;20122;-71
2023/10/10 09:02:16;;;;;;;9.98;2.20;;;17.40;99.90;;;;;;4964566;28;20031;-71
2023/10/10 09:04:42;;;;;;;11.15;2.85;;;17.50;99.90;;;;;;4949771;28;20107;-71
2023/10/10 09:07:09;;;;;;;16.90;3.88;;;17.60;99.90;;;;;;4948839;28;20031;-71
2023/10/10 09:12:03;;;;;;;4.82;2.45;;;18.00;99.90;;;;;;4950495;28;20082;-71
2023/10/10 09:14:43;;;;;;;8.60;2.97;;;18.10;99.90;;;;;;4953167;28;20059;-71
2023/10/10 09:17:14;;;;;;;8.93;2.53;;;18.10;99.90;;;;;;4952797;28;20495;-70
2023/10/10 09:19:48;;;;;;;14.02;2.80;;;18.10;99.90;;;;;;4948343;28;20074;-70
2023/10/10 09:22:42;;;;;;;5.35;2.28;;;18.30;99.90;;;;;;4960839;28;20035;-70
2023/10/10 09:25:42;;;;;;;6.40;3.00;;;18.30;99.90;;;;;;4948530;28;20039;-71
2023/10/10 09:28:10;;;;;;;11.07;2.97;;;18.60;99.90;;;;;;4949758;28;20046;-71
2023/10/10 09:30:49;;;;;;;10.98;2.67;;;18.40;99.90;;;;;;4949096;28;20399;-70
2023/10/10 09:33:23;;;;;;;8.57;2.35;;;18.70;99.90;;;;;;4948883;28;20468;-70
2023/10/10 09:35:58;;;;;;;6.90;2.55;;;18.70;99.90;;;;;;4964965;28;20067;-71
2023/10/10 09:38:27;;;;;;;9.95;2.15;;;18.60;99.90;;;;;;4925640;29;20507;-71
2023/10/10 09:41:14;;;;;;;7.93;2.50;;;19.00;99.90;;;;;;4966562;28;20039;-71
2023/10/10 09:47:13;;;;;;;12.70;3.88;;;19.00;99.90;;;;;;4928891;28;20550;-71
2023/10/10 09:55:34;;;;;;;;;;;19.40;99.90;;;;;;4952963;28;20031;-70
2023/10/10 09:58:00;;;;;;;7.85;2.92;;;19.60;99.90;;;;;;4956565;28;19918;-71
2023/10/10 10:00:53;;;;;;;8.00;2.83;;;19.80;99.90;;;;;;4952146;28;20093;-71
2023/10/10 10:09:45;;;;;;;11.40;3.28;;;20.50;99.90;;;;;;4947896;28;20023;-71
2023/10/10 10:12:45;;;;;;;10.02;3.25;;;20.50;99.90;;;;;;4911232;29;20055;-71
2023/10/10 10:15:28;;;;;;;9.98;3.85;;;20.70;99.90;;;;;;4941946;28;20023;-71
2023/10/10 10:18:18;;;;;;;8.65;3.22;;;20.70;99.90;;;;;;4952485;28;20035;-72
2023/10/10 10:23:27;;;;;;;17.95;3.25;;;20.50;99.90;;;;;;4963504;28;20036;-72
2023/10/10 10:26:10;;;;;;;11.38;3.03;;;20.80;99.90;;;;;;4951227;28;20039;-72
2023/10/10 10:28:56;;;;;;;5.38;2.50;;;20.60;99.90;;;;;;4949223;28;20031;-72
2023/10/10 10:31:30;;;;;;;16.17;3.70;;;20.90;99.90;;;;;;4955894;28;20551;-71
2023/10/10 10:34:23;;;;;;;10.07;2.20;;;21.20;99.90;;;;;;4960943;28;20020;-72
2023/10/10 10:37:13;;;;;;;7.10;2.95;;;21.20;99.90;;;;;;4951602;28;20035;-71
2023/10/10 10:40:22;;;;;;;5.70;2.53;;;21.30;99.90;;;;;;4964594;28;20030;-72
2023/10/10 10:42:28;;;;;;;8.55;2.47;;;21.30;99.90;;;;;;4947588;28;20035;-71
2023/10/10 10:44:55;;;;;;;6.72;2.63;;;21.40;99.90;;;;;;4945261;28;20380;-71
2023/10/10 10:47:37;;;;;;;8.30;2.97;;;21.90;99.90;;;;;;4946142;28;20555;-71
2023/10/10 10:50:17;;;;;;;11.05;3.60;;;22.60;99.50;;;;;;4950555;28;20039;-72
2023/10/10 10:52:55;;;;;;;8.38;2.75;;;22.70;98.60;;;;;;4960999;28;20129;-72
2023/10/10 10:55:27;;;;;;;11.43;3.35;;;22.60;99.40;;;;;;4956932;28;20439;-72
2023/10/10 10:58:07;;;;;;;5.18;2.15;;;23.00;98.50;;;;;;4948832;28;20043;-72
2023/10/10 11:00:57;;;;;;;9.20;3.05;;;23.30;98.20;;;;;;4951409;28;20046;-72
2023/10/10 11:03:38;;;;;;;8.23;2.60;;;23.60;96.80;;;;;;4957966;28;20038;-72
2023/10/10 11:06:14;;;;;;;8.98;2.47;;;23.90;96.90;;;;;;4966060;28;20039;-72
2023/10/10 11:11:25;;;;;;;8.65;2.90;;;25.60;95.00;;;;;;4956536;28;20031;-73
2023/10/10 11:14:00;;;;;;;6.60;2.15;;;25.60;94.00;;;;;;4944516;28;20035;-71
2023/10/10 11:16:45;;;;;;;14.02;3.25;;;24.80;94.30;;;;;;4956497;28;20361;-70
2023/10/10 11:21:49;;;;;;;10.80;2.22;;;25.40;94.10;;;;;;4946227;28;20071;-68
2023/10/10 11:24:25;;;;;;;7.68;2.85;;;27.10;91.80;;;;;;4952126;28;20028;-69
2023/10/10 11:29:29;;;;;;;9.35;2.60;;;26.70;91.10;;;;;;4952763;28;20046;-69
2023/10/10 11:32:08;;;;;;;9.60;2.45;;;25.30;92.30;;;;;;4956475;28;20395;-67
2023/10/10 11:34:47;;;;;;;7.28;2.83;;;25.80;92.40;;;;;;4954445;28;20094;-69
2023/10/10 11:37:31;;;;;;;7.80;3.08;;;25.90;91.90;;;;;;4951595;28;20038;-68
2023/10/10 11:40:31;;;;;;;8.70;2.88;;;26.20;91.60;;;;;;4953191;28;20114;-67
2023/10/10 11:43:04;;;;;;;12.20;2.90;;;25.50;92.30;;;;;;4966498;28;20039;-68
2023/10/10 11:45:50;;;;;;;9.00;2.53;;;25.50;92.80;;;;;;4953258;28;20655;-69
2023/10/10 11:48:16;;;;;;;6.30;2.17;;;25.90;91.90;;;;;;4951689;28;20371;-68
2023/10/10 11:50:51;;;;;;;8.05;2.22;;;27.10;91.00;;;;;;4964283;28;20032;-72
2023/10/10 11:53:27;;;;;;;8.02;2.70;;;25.80;92.00;;;;;;4944885;28;20043;-70
2023/10/10 11:55:54;;;;;;;7.05;2.10;;;25.30;92.60;;;;;;4967748;28;20436;-71
2023/10/10 11:58:35;;;;;;;5.25;2.28;;;25.50;92.70;;;;;;4968046;28;20058;-71
2023/10/10 12:01:10;;;;;;;8.35;2.40;;;25.50;91.90;;;;;;4969277;28;20387;-70
2023/10/10 12:06:14;;;;;;;9.57;2.53;;;25.20;92.60;;;;;;4969422;28;20105;-71
2023/10/10 12:08:52;;;;;;;10.50;2.90;;;24.80;93.10;;;;;;4949323;28;20063;-72
2023/10/10 12:11:21;;;;;;;5.85;2.35;;;25.30;92.80;;;;;;4949279;28;20484;-71
2023/10/10 12:14:09;;;;;;;5.10;2.65;;;25.60;92.10;;;;;;4948294;28;20036;-73
2023/10/10 12:16:34;;;;;;;7.00;2.70;;;25.40;92.30;;;;;;4952111;28;20042;-72
2023/10/10 12:19:00;;;;;;;5.72;2.08;;;25.60;93.20;;;;;;4948859;28;20036;-72
2023/10/10 12:21:26;;;;;;;6.97;3.10;;;25.20;92.70;;;;;;4952618;28;20492;-71
2023/10/10 12:23:55;;;;;;;5.38;2.25;;;24.60;93.10;;;;;;4947512;28;20366;-72
2023/10/10 12:26:22;;;;;;;8.63;2.73;;;24.50;93.70;;;;;;4968499;28;20926;-74
2023/10/10 12:28:52;;;;;;;5.13;1.50;;;25.40;92.70;;;;;;4949523;28;20089;-72
2023/10/10 12:31:21;;;;;;;3.20;1.60;;;25.60;92.60;;;;;;4962780;28;20391;-72
2023/10/10 12:33:48;;;;;;;18.90;2.47;;;25.60;91.90;;;;;;4950295;28;20476;-71
2023/10/10 12:36:16;;;;;;;8.23;2.17;;;25.80;91.90;;;;;;4953097;28;20078;-71
2023/10/10 12:38:41;;;;;;;9.38;2.03;;;26.00;91.40;;;;;;4934495;29;20042;-72
2023/10/10 12:41:11;;;;;;;12.93;2.13;;;25.40;92.30;;;;;;4945207;28;20773;-72
2023/10/10 12:43:38;;;;;;;5.78;1.88;;;25.60;91.70;;;;;;4951473;28;20038;-73
2023/10/10 12:46:07;;;;;;;6.20;2.10;;;25.30;92.10;;;;;;4966681;28;20645;-72
2023/10/10 12:48:39;;;;;;;11.20;2.33;;;25.00;92.30;;;;;;4952255;28;20024;-72
2023/10/10 12:51:09;;;;;;;4.97;2.15;;;25.30;92.50;;;;;;4964024;28;20110;-72
2023/10/10 12:53:42;;;;;;;12.02;2.25;;;25.20;92.10;;;;;;4951961;28;20023;-72
2023/10/10 12:56:20;;;;;;;6.80;2.38;;;25.50;92.10;;;;;;4963939;28;20039;-72
2023/10/10 12:58:57;;;;;;;9.63;3.03;;;25.20;92.00;;;;;;4950056;28;20027;-72
2023/10/10 13:01:24;;;;;;;5.30;2.38;;;24.60;93.10;;;;;;4947914;28;20122;-72
2023/10/10 13:03:51;;;;;;;8.57;2.75;;;24.80;92.70;;;;;;4949202;28;20032;-69
2023/10/10 13:06:18;;;;;;;7.43;2.47;;;25.40;92.20;;;;;;4965012;28;20039;-68
2023/10/10 13:08:55;;;;;;;8.68;2.55;;;25.70;92.20;;;;;;4949817;28;20027;-71
2023/10/10 13:11:43;;;;;;;5.57;2.00;;;26.60;90.90;;;;;;4956814;28;20031;-72
2023/10/10 13:14:10;;;;;;;5.50;2.15;;;26.80;90.00;;;;;;4950344;28;20046;-71
2023/10/10 13:19:09;;;;;;;10.77;1.90;;;27.10;89.60;;;;;;4951421;28;20057;-71
2023/10/10 13:21:36;;;;;;;10.45;2.88;;;27.10;89.20;;;;;;4951581;28;20035;-71
2023/10/10 13:24:13;;;;;;;10.55;2.67;;;27.90;88.90;;;;;;4949050;28;20028;-71
2023/10/10 13:26:42;;;;;;;7.47;2.30;;;28.60;87.50;;;;;;4953531;28;20046;-71
2023/10/10 13:29:08;;;;;;;5.45;2.28;;;29.60;84.30;;;;;;4948461;28;20031;-71
2023/10/10 13:31:34;;;;;;;9.73;2.13;;;29.00;84.50;;;;;;4962429;28;20059;-71
2023/10/10 13:34:01;;;;;;;8.40;2.22;;;29.10;84.60;;;;;;4951339;28;20039;-71
2023/10/10 13:36:27;;;;;;;5.07;1.58;;;27.80;86.40;;;;;;4961111;28;20561;-72
2023/10/10 13:38:58;;;;;;;10.52;2.63;;;28.50;84.70;;;;;;4958817;28;20038;-71
2023/10/10 13:41:28;;;;;;;10.02;2.00;;;28.40;84.60;;;;;;4954695;28;20034;-70
2023/10/10 13:43:59;;;;;;;;;;;27.40;86.80;;;;;;4951308;28;20543;-72
2023/10/10 13:46:29;;;;;;;7.82;1.90;;;27.00;87.10;;;;;;4954355;28;19914;-72
2023/10/10 13:48:54;;;;;;;7.37;2.07;;;26.80;87.50;;;;;;4941710;28;20043;-72
2023/10/10 13:51:20;;;;;;;8.57;2.42;;;27.50;87.20;;;;;;4954937;28;20279;-72
2023/10/10 13:53:46;;;;;;;12.63;3.08;;;26.30;88.80;;;;;;4947149;28;20527;-72
2023/10/10 13:56:16;;;;;;;8.93;2.45;;;26.20;89.70;;;;;;4955131;28;20053;-72
2023/10/10 13:58:51;;;;;;;8.73;2.83;;;27.30;88.40;;;;;;4947048;28;20042;-71
2023/10/10 14:01:36;;;;;;;10.25;2.00;;;27.70;86.40;;;;;;4947363;28;20034;-72
2023/10/10 14:04:46;;;;;;;7.35;2.58;;;27.00;87.20;;;;;;4946870;28;20360;-73
2023/10/10 14:06:54;;;;;;;7.25;2.58;;;27.00;88.60;;;;;;4960590;28;20050;-72
2023/10/10 14:09:31;;;;;;;6.13;2.38;;;27.90;86.20;;;;;;4947288;28;20101;-73
2023/10/10 14:12:02;;;;;;;6.32;1.77;;;29.00;85.10;;;;;;4954110;28;20028;-72
2023/10/10 14:14:31;;;;;;;12.52;2.67;;;28.00;84.50;;;;;;4946678;28;20031;-73
2023/10/10 14:16:57;;;;;;;9.05;2.17;;;28.10;84.20;;;;;;4952220;28;20027;-73
2023/10/10 14:19:24;;;;;;;6.68;1.83;;;28.50;84.30;;;;;;4946605;28;20598;-72
2023/10/10 14:21:52;;;;;;;9.73;2.83;;;28.10;83.80;;;;;;4968999;28;20035;-71
2023/10/10 14:24:19;;;;;;;5.95;1.95;;;26.90;86.20;;;;;;4946698;28;20039;-72
2023/10/10 14:26:48;;;;;;;8.07;2.50;;;26.50;87.30;;;;;;4953709;28;20031;-72
2023/10/10 14:29:16;;;;;;;8.90;2.88;;;26.50;87.80;;;;;;4946528;28;20079;-72
2023/10/10 14:31:42;;;;;;;5.90;2.08;;;26.70;87.90;;;;;;4976429;28;20054;-71
2023/10/10 14:34:15;;;;;;;5.75;2.22;;;27.40;85.40;;;;;;4949599;28;20166;-72
2023/10/10 14:36:41;;;;;;;7.45;2.20;;;27.60;85.60;;;;;;4951535;28;20181;-71
2023/10/10 14:39:28;;;;;;;6.43;2.35;;;28.40;84.20;;;;;;4934697;28;20158;-72
2023/10/10 14:41:57;;;;;;;7.43;2.13;;;28.70;81.10;;;;;;4961823;28;20039;-71
2023/10/10 14:44:26;;;;;;;9.57;3.08;;;29.00;81.10;;;;;;4948117;28;20031;-71
2023/10/10 14:46:54;;;;;;;4.53;1.97;;;28.50;81.90;;;;;;4953536;28;20053;-71
2023/10/10 14:49:29;;;;;;;4.18;1.95;;;27.30;83.80;;;;;;4935389;29;20534;-71
2023/10/10 14:52:09;;;;;;;6.70;1.80;;;28.20;82.80;;;;;;4952139;28;20510;-72
2023/10/10 14:54:40;;;;;;;6.30;1.85;;;27.60;83.00;;;;;;4947947;28;20046;-72
2023/10/10 14:57:06;;;;;;;5.68;2.03;;;27.70;82.30;;;;;;4952853;28;20415;-71
2023/10/10 14:59:33;;;;;;;6.20;2.35;;;27.70;82.70;;;;;;4949372;28;20039;-71
2023/10/10 15:02:00;;;;;;;7.65;2.50;;;27.50;83.40;;;;;;4977931;28;20038;-71
2023/10/10 15:04:30;;;;;;;8.60;2.00;;;28.20;82.50;;;;;;4952168;28;20038;-73
2023/10/10 15:06:58;;;;;;;6.68;1.73;;;28.60;82.30;;;;;;4960395;28;20073;-72
2023/10/10 15:09:25;;;;;;;9.05;3.50;;;29.30;81.60;;;;;;4949147;28;20043;-72
2023/10/10 15:11:58;;;;;;;12.57;2.40;;;28.50;80.00;;;;;;4952402;28;20050;-71
2023/10/10 15:14:24;;;;;;;6.95;2.20;;;29.20;79.70;;;;;;4944418;28;20047;-73
2023/10/10 15:16:50;;;;;;;7.57;2.03;;;28.00;79.80;;;;;;4964529;28;20035;-72
2023/10/10 15:19:15;;;;;;;11.88;2.50;;;26.60;83.50;;;;;;4956362;28;20039;-72
2023/10/10 15:21:41;;;;;;;6.57;2.15;;;26.50;84.30;;;;;;4953168;28;20082;-72
2023/10/10 15:24:11;;;;;;;7.00;2.13;;;26.70;84.20;;;;;;4948432;28;20605;-71
2023/10/10 15:26:40;;;;;;;5.28;2.35;;;26.70;84.00;;;;;;4952895;28;20035;-74
2023/10/10 15:29:11;;;;;;;5.72;2.38;;;26.20;84.80;;;;;;4950163;28;20038;-73
2023/10/10 15:31:38;;;;;;;7.00;2.50;;;26.70;85.00;;;;;;4953817;28;20054;-72
2023/10/10 15:34:04;;;;;;;7.30;2.55;;;27.50;83.80;;;;;;4948633;28;20039;-72
2023/10/10 15:36:30;;;;;;;7.15;1.95;;;28.30;82.40;;;;;;4951342;28;20035;-72
2023/10/10 15:39:03;;;;;;;11.25;2.08;;;27.90;81.00;;;;;;4958906;28;20031;-73
2023/10/10 15:41:31;;;;;;;8.20;2.70;;;28.20;80.80;;;;;;4947573;28;20031;-72
2023/10/10 15:44:02;;;;;;;6.45;2.50;;;26.80;83.20;;;;;;4941625;28;20035;-72
2023/10/10 15:46:34;;;;;;;11.60;2.58;;;27.10;82.10;;;;;;4944285;28;20047;-73
2023/10/10 15:49:02;;;;;;;7.25;2.65;;;27.80;79.60;;;;;;4958384;28;20027;-71
2023/10/10 15:51:37;;;;;;;4.57;1.92;;;28.00;79.10;;;;;;4926176;29;20035;-73
2023/10/10 15:54:08;;;;;;;6.20;2.50;;;27.80;78.30;;;;;;4962940;28;20090;-73
2023/10/10 15:56:34;;;;;;;6.47;2.50;;;28.60;77.30;;;;;;4944130;28;20545;-71
2023/10/10 15:59:01;;;;;;;10.20;2.13;;;28.00;77.60;;;;;;4928889;28;20039;-72
2023/10/10 16:01:30;;;;;;;10.25;2.78;;;28.80;76.20;;;;;;4943742;28;20043;-71
2023/10/10 16:04:04;;;;;;;7.32;2.90;;;28.30;76.70;;;;;;4947830;28;20035;-72
2023/10/10 16:06:34;;;;;;;7.18;2.00;;;27.90;76.30;;;;;;4960408;28;20403;-72
2023/10/10 16:09:52;;;;;;;9.00;1.90;;;26.70;79.40;;;;;;4959008;28;20019;-71
2023/10/10 16:11:53;;;;;;;;;;;26.20;80.00;;;;;;4944244;28;20031;-71